createdAt,value
2018-10-09T00:00:55.582Z,13.93
2018-10-09T00:03:22.921Z,12.43
2018-10-09T00:05:50.364Z,13.23
2018-10-09T00:08:17.758Z,12.53
2018-10-09T00:10:45.187Z,12.43
2018-10-09T00:13:12.587Z,13.67
2018-10-09T00:15:40.014Z,11.97
2018-10-09T00:18:07.452Z,14.83
2018-10-09T00:20:34.859Z,14.40
2018-10-09T00:23:02.263Z,14.37
2018-10-09T00:25:29.698Z,13.40
2018-10-09T00:27:57.127Z,12.67
2018-10-09T00:30:24.536Z,10.47
2018-10-09T00:32:51.956Z,11.10
2018-10-09T00:35:19.357Z,10.63
2018-10-09T00:37:46.784Z,10.67
2018-10-09T00:40:14.181Z,10.40
2018-10-09T00:42:41.605Z,10.77
2018-10-09T00:45:09.036Z,10.50
2018-10-09T00:47:36.437Z,10.77
2018-10-09T00:50:03.850Z,10.73
2018-10-09T00:52:31.257Z,11.63
2018-10-09T00:54:58.668Z,11.57
2018-10-09T00:57:26.087Z,11.33
2018-10-09T00:59:53.500Z,11.80
2018-10-09T01:02:20.932Z,10.23
2018-10-09T01:04:48.355Z,9.93
2018-10-09T01:07:15.773Z,10.93
2018-10-09T01:09:43.198Z,11.10
2018-10-09T01:12:10.634Z,10.83
2018-10-09T01:14:38.071Z,10.80
2018-10-09T01:17:05.470Z,10.40
2018-10-09T01:19:32.872Z,10.73
2018-10-09T01:22:00.309Z,11.17
2018-10-09T01:24:27.711Z,10.13
2018-10-09T01:26:55.120Z,10.83
2018-10-09T01:29:22.565Z,11.17
2018-10-09T01:31:49.992Z,9.97
2018-10-09T01:34:17.415Z,10.00
2018-10-09T01:36:44.861Z,10.40
2018-10-09T01:39:12.317Z,11.27
2018-10-09T01:41:39.723Z,9.77
2018-10-09T01:44:07.156Z,10.37
2018-10-09T01:46:34.564Z,10.00
2018-10-09T01:49:01.983Z,10.00
2018-10-09T01:51:29.380Z,10.37
2018-10-09T01:53:56.802Z,11.00
2018-10-09T01:56:24.203Z,10.80
2018-10-09T01:58:51.627Z,11.47
2018-10-09T02:01:19.030Z,11.90
2018-10-09T02:03:46.469Z,12.10
2018-10-09T02:06:13.882Z,12.63
2018-10-09T02:08:41.320Z,14.10
2018-10-09T02:11:08.729Z,11.67
2018-10-09T02:13:36.169Z,11.43
2018-10-09T02:16:03.584Z,11.93
2018-10-09T02:18:31.024Z,11.73
2018-10-09T02:20:58.427Z,12.53
2018-10-09T02:23:25.836Z,12.70
2018-10-09T02:25:53.270Z,10.87
2018-10-09T02:28:20.676Z,12.33
2018-10-09T02:30:48.122Z,11.33
2018-10-09T02:33:15.529Z,11.30
2018-10-09T02:35:42.936Z,11.57
2018-10-09T02:38:10.365Z,10.80
2018-10-09T02:40:37.761Z,10.87
2018-10-09T02:43:05.201Z,11.17
2018-10-09T02:45:32.634Z,10.23
2018-10-09T02:48:00.059Z,12.60
2018-10-09T02:50:27.465Z,10.53
2018-10-09T02:52:54.895Z,9.80
2018-10-09T02:55:22.301Z,10.20
2018-10-09T02:57:49.730Z,10.77
2018-10-09T03:00:17.126Z,10.60
2018-10-09T03:02:44.562Z,10.13
2018-10-09T03:05:11.971Z,11.60
2018-10-09T03:07:39.384Z,10.80
2018-10-09T03:10:06.856Z,10.87
2018-10-09T03:12:34.222Z,10.00
2018-10-09T03:15:01.665Z,10.90
2018-10-09T03:17:29.077Z,10.60
2018-10-09T03:19:56.516Z,10.07
2018-10-09T03:22:23.935Z,10.50
2018-10-09T03:24:51.362Z,11.23
2018-10-09T03:27:18.803Z,11.90
2018-10-09T03:29:46.235Z,11.13
2018-10-09T03:32:13.674Z,11.77
2018-10-09T03:34:41.074Z,12.03
2018-10-09T03:37:08.506Z,12.00
2018-10-09T03:39:35.912Z,12.80
2018-10-09T03:42:03.342Z,14.07
2018-10-09T03:44:30.763Z,12.80
2018-10-09T03:46:58.228Z,12.63
2018-10-09T03:49:25.634Z,13.10
2018-10-09T03:51:53.071Z,13.33
2018-10-09T03:54:20.483Z,13.50
2018-10-09T03:56:47.916Z,13.40
2018-10-09T03:59:15.351Z,14.50
2018-10-09T04:01:42.819Z,14.03
2018-10-09T04:04:10.203Z,13.03
2018-10-09T04:06:37.603Z,14.60
2018-10-09T04:09:05.065Z,13.30
2018-10-09T04:11:32.442Z,11.77
2018-10-09T04:13:59.867Z,14.20
2018-10-09T04:16:27.264Z,11.83
2018-10-09T04:18:54.693Z,12.07
2018-10-09T04:21:22.114Z,10.77
2018-10-09T04:23:49.522Z,10.63
2018-10-09T04:26:16.959Z,11.90
2018-10-09T04:28:44.351Z,9.97
2018-10-09T04:31:11.789Z,10.97
2018-10-09T04:33:39.196Z,10.73
2018-10-09T04:36:06.633Z,11.27
2018-10-09T04:38:34.064Z,12.30
2018-10-09T04:41:01.519Z,13.50
2018-10-09T04:43:29.027Z,11.30
2018-10-09T04:45:56.454Z,12.37
2018-10-09T04:48:23.863Z,11.73
2018-10-09T04:50:51.292Z,12.17
2018-10-09T04:53:18.708Z,11.70
2018-10-09T04:55:46.140Z,11.60
2018-10-09T04:58:13.554Z,10.70
2018-10-09T05:00:41.014Z,12.37
2018-10-09T05:03:08.401Z,11.27
2018-10-09T05:05:35.829Z,11.90
2018-10-09T05:08:03.261Z,11.77
2018-10-09T05:10:30.715Z,12.27
2018-10-09T05:12:58.132Z,10.27
2018-10-09T05:15:25.548Z,11.70
2018-10-09T05:17:53.041Z,11.07
2018-10-09T05:20:20.418Z,10.80
2018-10-09T05:22:47.848Z,11.37
2018-10-09T05:25:15.285Z,11.07
2018-10-09T05:27:42.715Z,11.20
2018-10-09T05:30:10.149Z,10.50
2018-10-09T05:32:37.583Z,10.97
2018-10-09T05:35:04.991Z,11.10
2018-10-09T05:37:32.477Z,11.50
2018-10-09T05:39:59.882Z,12.30
2018-10-09T05:42:27.289Z,12.57
2018-10-09T05:44:54.720Z,12.50
2018-10-09T05:47:22.146Z,13.40
2018-10-09T05:49:49.591Z,13.03
2018-10-09T05:52:17.009Z,14.00
2018-10-09T05:54:44.445Z,12.23
2018-10-09T05:57:11.849Z,13.57
2018-10-09T05:59:39.307Z,13.07
2018-10-09T06:02:06.742Z,12.60
2018-10-09T06:04:34.147Z,11.80
2018-10-09T06:07:01.597Z,13.03
2018-10-09T06:09:29.004Z,14.33
2018-10-09T06:11:56.449Z,14.53
2018-10-09T06:14:23.870Z,12.73
2018-10-09T06:16:51.279Z,12.83
2018-10-09T06:19:18.708Z,12.80
2018-10-09T06:21:46.121Z,11.27
2018-10-09T06:24:13.601Z,13.07
2018-10-09T06:26:40.994Z,12.30
2018-10-09T06:29:08.430Z,11.53
2018-10-09T06:31:35.852Z,13.33
2018-10-09T06:34:03.330Z,14.07
2018-10-09T06:36:30.691Z,14.17
2018-10-09T06:38:58.131Z,12.17
2018-10-09T06:41:25.537Z,12.77
2018-10-09T06:43:52.944Z,13.10
2018-10-09T06:46:20.382Z,12.57
2018-10-09T06:48:47.803Z,13.90
2018-10-09T06:51:15.220Z,13.83
2018-10-09T06:53:42.697Z,12.10
2018-10-09T06:56:10.046Z,11.43
2018-10-09T06:58:37.484Z,11.90
2018-10-09T07:01:04.889Z,11.10
2018-10-09T07:03:32.291Z,11.00
2018-10-09T07:05:59.761Z,11.00
2018-10-09T07:08:27.176Z,11.90
2018-10-09T07:10:54.654Z,13.37
2018-10-09T07:13:22.036Z,12.90
2018-10-09T07:15:49.474Z,13.70
2018-10-09T07:18:16.914Z,11.30
2018-10-09T07:20:44.359Z,13.10
2018-10-09T07:23:11.790Z,13.90
2018-10-09T07:25:39.239Z,17.27
2018-10-09T07:28:06.655Z,15.73
2018-10-09T07:30:34.087Z,18.03
2018-10-09T07:33:01.513Z,20.17
2018-10-09T07:35:28.932Z,22.43
2018-10-09T07:37:56.383Z,20.77
2018-10-09T07:40:23.776Z,20.20
2018-10-09T07:42:51.224Z,20.63
2018-10-09T07:45:18.642Z,22.03
2018-10-09T07:47:46.085Z,22.70
2018-10-09T07:50:13.550Z,23.40
2018-10-09T07:52:40.973Z,22.80
2018-10-09T07:55:08.404Z,21.70
2018-10-09T07:57:35.844Z,21.67
2018-10-09T08:00:03.260Z,23.80
2018-10-09T08:02:30.739Z,33.80
2018-10-09T08:04:58.133Z,25.30
2018-10-09T08:07:25.567Z,30.60
2018-10-09T08:09:52.979Z,22.53
2018-10-09T08:12:20.421Z,20.47
2018-10-09T08:14:47.864Z,19.17
2018-10-09T08:17:15.271Z,19.63
2018-10-09T08:19:42.689Z,21.70
2018-10-09T08:22:10.141Z,20.80
2018-10-09T08:24:37.572Z,21.20
2018-10-09T08:27:05.016Z,21.07
2018-10-09T08:29:32.434Z,22.77
2018-10-09T08:31:59.883Z,22.90
2018-10-09T08:34:27.311Z,21.10
2018-10-09T08:36:54.753Z,21.73
2018-10-09T08:39:22.181Z,23.23
2018-10-09T08:41:49.608Z,23.80
2018-10-09T08:44:17.047Z,22.63
2018-10-09T08:46:47.369Z,23.87
2018-10-09T08:49:14.802Z,26.30
2018-10-09T08:51:42.225Z,23.67
2018-10-09T08:54:09.680Z,24.50
2018-10-09T08:56:37.115Z,23.57
2018-10-09T08:59:04.558Z,20.83
2018-10-09T09:01:32.058Z,23.13
2018-10-09T09:03:59.505Z,19.93
2018-10-09T09:06:26.971Z,20.93
2018-10-09T09:08:54.426Z,20.03
2018-10-09T09:11:21.850Z,23.57
2018-10-09T09:13:49.286Z,21.20
2018-10-09T09:16:16.722Z,21.30
2018-10-09T09:18:44.127Z,23.70
2018-10-09T09:21:11.758Z,24.13
2018-10-09T09:23:39.104Z,21.17
2018-10-09T09:26:06.635Z,21.30
2018-10-09T09:28:34.046Z,22.27
2018-10-09T09:31:01.468Z,23.40
2018-10-09T09:33:28.905Z,21.43
2018-10-09T09:35:56.300Z,21.30
2018-10-09T09:38:23.745Z,21.37
2018-10-09T09:40:51.163Z,23.17
2018-10-09T09:43:18.601Z,22.10
2018-10-09T09:45:46.035Z,23.47
2018-10-09T09:48:13.451Z,20.27
2018-10-09T09:50:40.870Z,20.67
2018-10-09T09:53:08.299Z,20.43
2018-10-09T09:55:35.738Z,20.77
2018-10-09T09:58:03.268Z,21.27
2018-10-09T10:00:30.589Z,21.80
2018-10-09T10:02:58.040Z,21.17
2018-10-09T10:05:25.476Z,22.27
2018-10-09T10:07:52.962Z,24.20
2018-10-09T10:10:20.406Z,22.07
2018-10-09T10:12:47.834Z,23.70
2018-10-09T10:15:15.253Z,22.10
2018-10-09T10:17:42.687Z,24.80
2018-10-09T10:20:10.153Z,24.40
2018-10-09T10:22:37.569Z,23.70
2018-10-09T10:25:05.030Z,24.70
2018-10-09T10:27:32.452Z,21.80
2018-10-09T10:29:59.911Z,21.10
2018-10-09T10:32:27.320Z,21.73
2018-10-09T10:34:54.758Z,21.20
2018-10-09T10:37:22.174Z,22.07
2018-10-09T10:39:49.599Z,23.00
2018-10-09T10:42:17.137Z,23.37
2018-10-09T10:44:44.478Z,21.70
2018-10-09T10:47:11.933Z,22.40
2018-10-09T10:49:39.369Z,21.23
2018-10-09T10:52:06.810Z,21.03
2018-10-09T10:54:34.232Z,21.03
2018-10-09T10:57:01.688Z,22.80
2018-10-09T10:59:29.123Z,20.90
2018-10-09T11:01:56.589Z,21.33
2018-10-09T11:04:23.970Z,21.10
2018-10-09T11:06:51.381Z,21.80
2018-10-09T11:09:18.810Z,19.97
2018-10-09T11:11:46.236Z,18.60
2018-10-09T11:14:13.681Z,17.00
2018-10-09T11:16:41.151Z,16.33
2018-10-09T11:19:08.560Z,16.47
2018-10-09T11:21:36.044Z,17.83
2018-10-09T11:24:03.445Z,17.63
2018-10-09T11:26:30.862Z,15.37
2018-10-09T11:28:58.263Z,15.13
2018-10-09T11:31:25.701Z,15.43
2018-10-09T11:33:53.125Z,15.27
2018-10-09T11:36:20.557Z,16.47
2018-10-09T11:38:47.973Z,14.83
2018-10-09T11:41:15.411Z,15.33
2018-10-09T11:43:42.833Z,14.30
2018-10-09T11:46:10.260Z,16.20
2018-10-09T11:48:39.819Z,16.23
2018-10-09T11:51:07.253Z,14.67
2018-10-09T11:53:34.666Z,13.50
2018-10-09T11:56:02.120Z,13.40
2018-10-09T11:58:29.575Z,14.00
2018-10-09T12:00:56.973Z,13.03
2018-10-09T12:03:24.410Z,13.60
2018-10-09T12:05:51.913Z,12.83
2018-10-09T12:08:19.297Z,12.80
2018-10-09T12:10:46.694Z,13.47
2018-10-09T12:13:14.156Z,13.63
2018-10-09T12:15:41.668Z,12.40
2018-10-09T12:18:09.030Z,13.07
2018-10-09T12:20:36.453Z,12.93
2018-10-09T12:23:03.881Z,12.90
2018-10-09T12:25:31.322Z,13.00
2018-10-09T12:27:58.860Z,12.80
2018-10-09T12:30:45.910Z,12.77
2018-10-09T12:33:13.346Z,13.53
2018-10-09T12:35:40.780Z,13.77
2018-10-09T12:38:08.219Z,12.97
2018-10-09T12:40:35.657Z,13.73
2018-10-09T12:43:03.083Z,12.97
2018-10-09T12:45:30.511Z,12.60
2018-10-09T12:47:57.925Z,11.90
2018-10-09T12:50:25.355Z,11.87
2018-10-09T12:52:52.820Z,11.53
2018-10-09T12:55:20.247Z,10.57
2018-10-09T12:57:47.647Z,12.33
2018-10-09T13:00:15.052Z,11.87
2018-10-09T13:02:42.512Z,12.00
2018-10-09T13:05:09.913Z,11.20
2018-10-09T13:07:37.348Z,11.13
2018-10-09T13:10:04.779Z,11.17
2018-10-09T13:12:32.232Z,11.13
2018-10-09T13:14:59.655Z,11.93
2018-10-09T13:17:27.111Z,12.40
2018-10-09T13:19:54.873Z,12.60
2018-10-09T13:22:22.706Z,11.60
2018-10-09T13:24:49.721Z,13.13
2018-10-09T13:27:17.291Z,11.60
2018-10-09T13:29:44.687Z,13.27
2018-10-09T13:32:12.123Z,13.00
2018-10-09T13:34:39.539Z,12.47
2018-10-09T13:37:06.960Z,12.03
2018-10-09T13:39:34.389Z,12.37
2018-10-09T13:42:01.840Z,10.73
2018-10-09T13:44:29.292Z,10.97
2018-10-09T13:46:56.720Z,9.37
2018-10-09T13:49:24.152Z,9.87
2018-10-09T13:51:55.348Z,10.47
2018-10-09T13:54:22.791Z,10.03
2018-10-09T13:56:50.320Z,10.00
2018-10-09T13:59:17.640Z,11.17
2018-10-09T14:01:45.059Z,10.60
2018-10-09T14:04:12.512Z,10.27
2018-10-09T14:06:39.934Z,9.40
2018-10-09T14:09:07.361Z,9.57
2018-10-09T14:11:34.772Z,9.33
2018-10-09T14:14:02.198Z,10.63
2018-10-09T14:16:29.616Z,9.60
2018-10-09T14:18:57.059Z,10.37
2018-10-09T14:21:24.467Z,10.20
2018-10-09T14:23:51.912Z,9.97
2018-10-09T14:26:19.325Z,9.33
2018-10-09T14:28:46.795Z,8.90
2018-10-09T14:31:14.211Z,9.17
2018-10-09T14:33:41.642Z,9.23
2018-10-09T14:36:09.059Z,10.07
2018-10-09T14:38:36.491Z,9.23
2018-10-09T14:41:03.913Z,8.67
2018-10-09T14:43:31.345Z,9.87
2018-10-09T14:45:58.803Z,9.17
2018-10-09T14:48:26.250Z,10.07
2018-10-09T14:50:53.651Z,8.97
2018-10-09T14:53:21.056Z,8.27
2018-10-09T14:55:48.499Z,8.30
2018-10-09T14:58:15.939Z,8.47
2018-10-09T15:00:43.394Z,7.67
2018-10-09T15:03:10.844Z,8.27
2018-10-09T15:05:38.256Z,8.10
2018-10-09T15:08:05.667Z,8.57
2018-10-09T15:10:33.088Z,8.97
2018-10-09T15:13:00.513Z,9.40
2018-10-09T15:15:27.927Z,9.40
2018-10-09T15:17:55.414Z,9.40
2018-10-09T15:20:22.784Z,9.33
2018-10-09T15:22:50.196Z,9.00
2018-10-09T15:25:17.638Z,8.97
2018-10-09T15:27:45.064Z,8.90
2018-10-09T15:30:12.491Z,9.57
2018-10-09T15:32:39.924Z,9.03
2018-10-09T15:35:07.396Z,9.10
2018-10-09T15:37:34.791Z,9.77
2018-10-09T15:40:02.244Z,10.20
2018-10-09T15:42:29.664Z,10.43
2018-10-09T15:44:57.090Z,11.07
2018-10-09T15:47:24.603Z,11.77
2018-10-09T15:49:51.955Z,11.67
2018-10-09T15:52:19.362Z,12.43
2018-10-09T15:54:46.887Z,12.83
2018-10-09T15:57:14.319Z,12.73
2018-10-09T15:59:41.746Z,12.60
2018-10-09T16:02:09.291Z,12.20
2018-10-09T16:04:36.713Z,14.03
2018-10-09T16:07:04.158Z,12.83
2018-10-09T16:09:31.577Z,13.53
2018-10-09T16:11:59.060Z,12.83
2018-10-09T16:14:26.494Z,13.13
2018-10-09T16:16:53.917Z,12.90
2018-10-09T16:19:21.376Z,12.37
2018-10-09T16:21:48.799Z,12.13
2018-10-09T16:24:16.305Z,13.63
2018-10-09T16:26:43.692Z,12.77
2018-10-09T16:29:11.138Z,14.77
2018-10-09T16:31:38.572Z,13.43
2018-10-09T16:34:06.021Z,13.73
2018-10-09T16:36:33.462Z,14.20
2018-10-09T16:39:00.892Z,13.70
2018-10-09T16:41:28.356Z,12.70
2018-10-09T16:43:55.799Z,12.13
2018-10-09T16:46:23.232Z,13.70
2018-10-09T16:48:50.642Z,12.60
2018-10-09T16:51:18.070Z,12.53
2018-10-09T16:53:45.497Z,14.07
2018-10-09T16:56:12.938Z,12.50
2018-10-09T16:58:40.368Z,12.93
2018-10-09T17:01:07.803Z,12.63
2018-10-09T17:03:35.253Z,13.40
2018-10-09T17:06:02.684Z,12.13
2018-10-09T17:08:30.110Z,13.20
2018-10-09T17:10:57.903Z,12.67
2018-10-09T17:13:25.281Z,11.97
2018-10-09T17:15:52.789Z,11.83
2018-10-09T17:18:20.162Z,11.57
2018-10-09T17:20:47.567Z,11.80
2018-10-09T17:23:15.045Z,12.07
2018-10-09T17:25:42.525Z,13.23
2018-10-09T17:28:09.943Z,12.40
2018-10-09T17:30:37.504Z,13.27
2018-10-09T17:33:04.983Z,12.70
2018-10-09T17:35:32.349Z,12.53
2018-10-09T17:37:59.773Z,11.77
2018-10-09T17:40:27.225Z,12.17
2018-10-09T17:42:54.638Z,13.30
2018-10-09T17:45:22.070Z,12.43
2018-10-09T17:47:49.503Z,13.73
2018-10-09T17:50:16.946Z,12.83
2018-10-09T17:52:44.369Z,14.07
2018-10-09T17:55:11.803Z,13.27
2018-10-09T17:57:39.257Z,13.43
2018-10-09T18:00:06.674Z,12.97
2018-10-09T18:02:34.123Z,13.33
2018-10-09T18:05:01.559Z,13.00
2018-10-09T18:07:29.003Z,13.73
2018-10-09T18:09:56.449Z,14.03
2018-10-09T18:12:23.869Z,14.33
2018-10-09T18:14:51.394Z,13.30
2018-10-09T18:17:18.751Z,13.43
2018-10-09T18:19:46.172Z,14.23
2018-10-09T18:22:13.624Z,13.40
2018-10-09T18:24:41.038Z,14.17
2018-10-09T18:27:08.496Z,13.63
2018-10-09T18:29:35.945Z,13.73
2018-10-09T18:32:03.395Z,13.47
2018-10-09T18:34:30.848Z,13.53
2018-10-09T18:36:58.288Z,14.73
2018-10-09T18:39:25.730Z,14.00
2018-10-09T18:41:56.052Z,14.47
2018-10-09T18:44:23.477Z,14.40
2018-10-09T18:46:50.940Z,14.90
2018-10-09T18:49:18.388Z,14.60
2018-10-09T18:51:45.831Z,15.13
2018-10-09T18:54:13.276Z,15.53
2018-10-09T18:56:40.703Z,15.07
2018-10-09T18:59:08.145Z,16.03
2018-10-09T19:01:35.598Z,15.87
2018-10-09T19:04:03.027Z,15.50
2018-10-09T19:06:30.468Z,14.57
2018-10-09T19:08:57.897Z,15.30
2018-10-09T19:11:25.306Z,14.90
2018-10-09T19:13:52.785Z,15.20
2018-10-09T19:16:20.248Z,15.93
2018-10-09T19:18:47.683Z,15.47
2018-10-09T19:21:15.124Z,16.27
2018-10-09T19:23:42.588Z,15.00
2018-10-09T19:26:11.157Z,14.63
2018-10-09T19:28:38.567Z,15.20
2018-10-09T19:31:06.018Z,14.80
2018-10-09T19:33:33.472Z,16.03
2018-10-09T19:36:00.911Z,16.57
2018-10-09T19:38:28.354Z,15.27
2018-10-09T19:40:55.804Z,14.97
2018-10-09T19:43:23.218Z,16.27
2018-10-09T19:45:50.669Z,15.80
2018-10-09T19:48:18.140Z,15.93
2018-10-09T19:50:45.637Z,15.13
2018-10-09T19:53:13.000Z,18.60
2018-10-09T19:55:40.423Z,16.90
2018-10-09T19:58:10.778Z,17.33
2018-10-09T20:00:38.199Z,17.37
2018-10-09T20:03:05.845Z,16.93
2018-10-09T20:05:33.259Z,16.93
2018-10-09T20:08:00.737Z,17.23
2018-10-09T20:10:28.163Z,17.40
2018-10-09T20:12:55.601Z,18.03
2018-10-09T20:15:23.024Z,17.53
2018-10-09T20:17:50.572Z,16.57
2018-10-09T20:20:17.909Z,16.27
2018-10-09T20:22:45.363Z,17.33
2018-10-09T20:25:12.783Z,16.93
2018-10-09T20:27:40.275Z,17.33
2018-10-09T20:30:07.683Z,17.77
2018-10-09T20:32:35.122Z,17.77
2018-10-09T20:35:02.556Z,17.63
2018-10-09T20:37:29.978Z,17.33
2018-10-09T20:39:57.418Z,17.17
2018-10-09T20:42:24.842Z,18.50
2018-10-09T20:44:52.288Z,19.03
2018-10-09T20:47:19.697Z,17.27
2018-10-09T20:49:47.121Z,18.90
2018-10-09T20:52:14.540Z,18.17
2018-10-09T20:54:41.967Z,18.40
2018-10-09T20:57:09.381Z,18.97
2018-10-09T20:59:36.895Z,18.40
2018-10-09T21:02:04.272Z,18.17
2018-10-09T21:04:31.691Z,19.03
2018-10-09T21:06:59.129Z,20.10
2018-10-09T21:09:26.550Z,18.97
2018-10-09T21:11:53.977Z,19.63
2018-10-09T21:14:21.461Z,20.47
2018-10-09T21:16:48.893Z,18.50
2018-10-09T21:19:16.328Z,18.90
2018-10-09T21:21:43.776Z,19.57
2018-10-09T21:24:11.205Z,20.47
2018-10-09T21:26:38.614Z,18.80
2018-10-09T21:29:06.059Z,18.47
2018-10-09T21:31:33.491Z,18.43
2018-10-09T21:34:00.941Z,19.70
2018-10-09T21:36:28.437Z,18.97
2018-10-09T21:38:55.824Z,20.50
2018-10-09T21:41:23.260Z,19.43
2018-10-09T21:43:50.683Z,20.13
2018-10-09T21:46:18.095Z,21.13
2018-10-09T21:48:45.543Z,20.03
2018-10-09T21:51:12.966Z,20.47
2018-10-09T21:53:40.425Z,19.13
2018-10-09T21:56:07.855Z,21.03
2018-10-09T21:58:35.274Z,20.50
2018-10-09T22:01:02.731Z,19.57
2018-10-09T22:03:30.171Z,21.60
2018-10-09T22:05:57.589Z,20.67
2018-10-09T22:08:25.048Z,21.97
2018-10-09T22:10:52.517Z,21.70
2018-10-09T22:13:19.945Z,19.77
2018-10-09T22:15:47.412Z,20.63
2018-10-09T22:18:14.857Z,21.23
2018-10-09T22:20:42.292Z,19.67
2018-10-09T22:23:09.715Z,20.47
2018-10-09T22:25:37.133Z,21.03
2018-10-09T22:28:04.569Z,20.20
2018-10-09T22:30:31.987Z,21.23
2018-10-09T22:32:59.504Z,21.03
2018-10-09T22:35:26.953Z,21.93
2018-10-09T22:37:54.364Z,21.90
2018-10-09T22:40:21.805Z,21.57
2018-10-09T22:42:49.235Z,21.90
2018-10-09T22:45:16.672Z,20.10
2018-10-09T22:47:44.162Z,22.00
2018-10-09T22:50:11.574Z,21.57
2018-10-09T22:52:39.008Z,21.77
2018-10-09T22:55:06.457Z,20.93
2018-10-09T22:57:33.881Z,21.03
2018-10-09T23:00:01.314Z,20.10
2018-10-09T23:02:28.755Z,22.87
2018-10-09T23:04:56.187Z,21.37
2018-10-09T23:07:23.633Z,21.23
2018-10-09T23:09:51.049Z,21.10
2018-10-09T23:12:18.481Z,20.20
2018-10-09T23:14:45.885Z,20.43
2018-10-09T23:17:13.306Z,21.23
2018-10-09T23:19:40.732Z,20.00
2018-10-09T23:22:08.172Z,19.17
2018-10-09T23:24:35.582Z,19.93
2018-10-09T23:27:03.025Z,19.83
2018-10-09T23:29:30.450Z,19.40
2018-10-09T23:31:57.888Z,17.40
2018-10-09T23:34:25.327Z,18.00
2018-10-09T23:36:52.773Z,18.73
2018-10-09T23:39:20.184Z,19.77
2018-10-09T23:41:47.639Z,20.37
2018-10-09T23:44:15.058Z,19.80
2018-10-09T23:46:42.487Z,19.83
2018-10-09T23:49:09.906Z,19.80
2018-10-09T23:51:37.340Z,21.43
2018-10-09T23:54:04.754Z,19.63
2018-10-09T23:56:32.196Z,20.57
2018-10-09T23:58:59.605Z,22.93
